sensor_id;sensor_type;location;lat;lon;timestamp;P1;durP1;ratioP1;P2;durP2;ratioP2
20170;SDS011;10245;51.344;6.620;2023-03-13T00:00:08;17.10;;;5.07;;
20170;SDS011;10245;51.344;6.620;2023-03-13T00:02:33;16.55;;;4.25;;
20170;SDS011;10245;51.344;6.620;2023-03-13T00:04:56;19.55;;;4.47;;
20170;SDS011;10245;51.344;6.620;2023-03-13T00:07:21;18.45;;;5.50;;
20170;SDS011;10245;51.344;6.620;2023-03-13T00:09:44;20.92;;;4.47;;
20170;SDS011;10245;51.344;6.620;2023-03-13T00:12:08;20.27;;;4.50;;
20170;SDS011;10245;51.344;6.620;2023-03-13T00:14:31;17.35;;;4.22;;
20170;SDS011;10245;51.344;6.620;2023-03-13T00:16:54;19.67;;;4.43;;
20170;SDS011;10245;51.344;6.620;2023-03-13T00:19:19;18.38;;;4.85;;
20170;SDS011;10245;51.344;6.620;2023-03-13T00:21:43;24.33;;;4.22;;
20170;SDS011;10245;51.344;6.620;2023-03-13T00:24:08;21.88;;;4.03;;
20170;SDS011;10245;51.344;6.620;2023-03-13T00:26:33;21.17;;;5.50;;
20170;SDS011;10245;51.344;6.620;2023-03-13T00:28:56;20.75;;;4.65;;
20170;SDS011;10245;51.344;6.620;2023-03-13T00:31:20;20.48;;;4.55;;
20170;SDS011;10245;51.344;6.620;2023-03-13T00:33:46;16.50;;;4.90;;
20170;SDS011;10245;51.344;6.620;2023-03-13T00:36:12;17.20;;;4.40;;
20170;SDS011;10245;51.344;6.620;2023-03-13T00:38:41;19.27;;;4.50;;
20170;SDS011;10245;51.344;6.620;2023-03-13T00:41:06;19.65;;;4.53;;
20170;SDS011;10245;51.344;6.620;2023-03-13T00:43:32;17.73;;;4.15;;
20170;SDS011;10245;51.344;6.620;2023-03-13T00:45:56;22.08;;;4.32;;
20170;SDS011;10245;51.344;6.620;2023-03-13T00:48:20;21.40;;;5.00;;
20170;SDS011;10245;51.344;6.620;2023-03-13T00:50:44;19.85;;;4.97;;
20170;SDS011;10245;51.344;6.620;2023-03-13T00:53:08;23.23;;;5.28;;
20170;SDS011;10245;51.344;6.620;2023-03-13T00:55:31;18.25;;;5.07;;
20170;SDS011;10245;51.344;6.620;2023-03-13T00:57:56;20.80;;;5.22;;
20170;SDS011;10245;51.344;6.620;2023-03-13T01:00:20;17.67;;;4.50;;
20170;SDS011;10245;51.344;6.620;2023-03-13T01:02:45;16.95;;;4.10;;
20170;SDS011;10245;51.344;6.620;2023-03-13T01:05:09;23.52;;;5.57;;
20170;SDS011;10245;51.344;6.620;2023-03-13T01:07:33;19.27;;;4.40;;
20170;SDS011;10245;51.344;6.620;2023-03-13T01:09:57;22.63;;;4.10;;
20170;SDS011;10245;51.344;6.620;2023-03-13T01:12:20;21.52;;;4.80;;
20170;SDS011;10245;51.344;6.620;2023-03-13T01:14:44;26.38;;;5.43;;
20170;SDS011;10245;51.344;6.620;2023-03-13T01:17:11;21.65;;;4.13;;
20170;SDS011;10245;51.344;6.620;2023-03-13T01:19:34;17.35;;;4.32;;
20170;SDS011;10245;51.344;6.620;2023-03-13T01:21:57;18.90;;;4.32;;
20170;SDS011;10245;51.344;6.620;2023-03-13T01:24:21;19.73;;;5.03;;
20170;SDS011;10245;51.344;6.620;2023-03-13T01:26:45;17.75;;;4.68;;
20170;SDS011;10245;51.344;6.620;2023-03-13T01:29:09;27.20;;;5.30;;
20170;SDS011;10245;51.344;6.620;2023-03-13T01:31:34;20.00;;;4.40;;
20170;SDS011;10245;51.344;6.620;2023-03-13T01:34:01;19.05;;;4.05;;
20170;SDS011;10245;51.344;6.620;2023-03-13T01:36:27;16.75;;;4.18;;
20170;SDS011;10245;51.344;6.620;2023-03-13T01:38:51;16.92;;;4.10;;
20170;SDS011;10245;51.344;6.620;2023-03-13T01:41:16;19.88;;;4.57;;
20170;SDS011;10245;51.344;6.620;2023-03-13T01:43:42;24.42;;;4.63;;
20170;SDS011;10245;51.344;6.620;2023-03-13T01:46:10;23.00;;;5.10;;
20170;SDS011;10245;51.344;6.620;2023-03-13T01:49:02;22.58;;;5.03;;
20170;SDS011;10245;51.344;6.620;2023-03-13T01:51:35;19.58;;;4.57;;
20170;SDS011;10245;51.344;6.620;2023-03-13T01:54:03;20.05;;;4.10;;
20170;SDS011;10245;51.344;6.620;2023-03-13T01:56:34;19.50;;;4.32;;
20170;SDS011;10245;51.344;6.620;2023-03-13T01:59:02;17.80;;;4.15;;
20170;SDS011;10245;51.344;6.620;2023-03-13T02:01:26;13.77;;;4.13;;
20170;SDS011;10245;51.344;6.620;2023-03-13T02:03:51;17.08;;;3.85;;
20170;SDS011;10245;51.344;6.620;2023-03-13T02:06:17;15.85;;;4.57;;
20170;SDS011;10245;51.344;6.620;2023-03-13T02:08:41;21.90;;;4.38;;
20170;SDS011;10245;51.344;6.620;2023-03-13T02:11:12;15.98;;;4.55;;
20170;SDS011;10245;51.344;6.620;2023-03-13T02:13:45;19.55;;;4.18;;
20170;SDS011;10245;51.344;6.620;2023-03-13T02:16:10;17.60;;;4.50;;
20170;SDS011;10245;51.344;6.620;2023-03-13T02:18:34;19.42;;;4.25;;
20170;SDS011;10245;51.344;6.620;2023-03-13T02:21:00;16.60;;;3.92;;
20170;SDS011;10245;51.344;6.620;2023-03-13T02:23:34;19.58;;;3.60;;
20170;SDS011;10245;51.344;6.620;2023-03-13T02:26:07;19.98;;;3.97;;
20170;SDS011;10245;51.344;6.620;2023-03-13T02:28:31;16.98;;;4.07;;
20170;SDS011;10245;51.344;6.620;2023-03-13T02:31:03;14.13;;;3.72;;
20170;SDS011;10245;51.344;6.620;2023-03-13T02:33:29;17.40;;;3.63;;
20170;SDS011;10245;51.344;6.620;2023-03-13T02:35:57;16.50;;;4.07;;
20170;SDS011;10245;51.344;6.620;2023-03-13T02:38:24;16.83;;;3.55;;
20170;SDS011;10245;51.344;6.620;2023-03-13T02:40:51;15.18;;;3.85;;
20170;SDS011;10245;51.344;6.620;2023-03-13T02:43:19;12.82;;;2.97;;
20170;SDS011;10245;51.344;6.620;2023-03-13T02:48:34;15.55;;;3.50;;
20170;SDS011;10245;51.344;6.620;2023-03-13T02:51:00;13.95;;;3.30;;
20170;SDS011;10245;51.344;6.620;2023-03-13T02:53:27;11.95;;;3.00;;
20170;SDS011;10245;51.344;6.620;2023-03-13T02:55:51;13.48;;;3.13;;
20170;SDS011;10245;51.344;6.620;2023-03-13T02:58:15;11.63;;;3.17;;
20170;SDS011;10245;51.344;6.620;2023-03-13T03:00:39;9.15;;;2.63;;
20170;SDS011;10245;51.344;6.620;2023-03-13T03:03:03;9.93;;;2.90;;
20170;SDS011;10245;51.344;6.620;2023-03-13T03:05:26;13.60;;;3.15;;
20170;SDS011;10245;51.344;6.620;2023-03-13T03:07:51;10.15;;;2.40;;
20170;SDS011;10245;51.344;6.620;2023-03-13T03:10:14;10.02;;;2.42;;
20170;SDS011;10245;51.344;6.620;2023-03-13T03:12:39;9.00;;;2.47;;
20170;SDS011;10245;51.344;6.620;2023-03-13T03:15:02;11.10;;;2.38;;
20170;SDS011;10245;51.344;6.620;2023-03-13T03:17:30;5.75;;;1.80;;
20170;SDS011;10245;51.344;6.620;2023-03-13T03:19:54;8.80;;;2.33;;
20170;SDS011;10245;51.344;6.620;2023-03-13T03:22:17;7.55;;;2.15;;
20170;SDS011;10245;51.344;6.620;2023-03-13T03:24:40;7.40;;;2.00;;
20170;SDS011;10245;51.344;6.620;2023-03-13T03:27:04;10.25;;;2.50;;
20170;SDS011;10245;51.344;6.620;2023-03-13T03:29:33;9.82;;;2.00;;
20170;SDS011;10245;51.344;6.620;2023-03-13T03:31:57;7.22;;;2.05;;
20170;SDS011;10245;51.344;6.620;2023-03-13T03:34:23;4.97;;;1.80;;
20170;SDS011;10245;51.344;6.620;2023-03-13T03:36:46;4.22;;;2.00;;
20170;SDS011;10245;51.344;6.620;2023-03-13T03:39:10;8.85;;;2.40;;
20170;SDS011;10245;51.344;6.620;2023-03-13T03:41:33;8.70;;;2.15;;
20170;SDS011;10245;51.344;6.620;2023-03-13T03:43:58;6.82;;;1.63;;
20170;SDS011;10245;51.344;6.620;2023-03-13T03:46:32;5.80;;;2.10;;
20170;SDS011;10245;51.344;6.620;2023-03-13T03:48:55;3.22;;;1.67;;
20170;SDS011;10245;51.344;6.620;2023-03-13T03:51:20;3.88;;;2.15;;
20170;SDS011;10245;51.344;6.620;2023-03-13T03:53:44;4.47;;;2.05;;
20170;SDS011;10245;51.344;6.620;2023-03-13T03:56:07;3.97;;;1.60;;
20170;SDS011;10245;51.344;6.620;2023-03-13T03:58:36;2.83;;;1.67;;
20170;SDS011;10245;51.344;6.620;2023-03-13T04:01:22;4.45;;;2.00;;
20170;SDS011;10245;51.344;6.620;2023-03-13T04:03:45;3.97;;;1.80;;
20170;SDS011;10245;51.344;6.620;2023-03-13T04:06:09;3.58;;;1.50;;
20170;SDS011;10245;51.344;6.620;2023-03-13T04:08:34;3.30;;;1.80;;
20170;SDS011;10245;51.344;6.620;2023-03-13T04:10:59;3.47;;;1.98;;
20170;SDS011;10245;51.344;6.620;2023-03-13T04:13:27;3.38;;;1.67;;
20170;SDS011;10245;51.344;6.620;2023-03-13T04:15:53;4.22;;;1.83;;
20170;SDS011;10245;51.344;6.620;2023-03-13T04:18:17;3.85;;;1.90;;
20170;SDS011;10245;51.344;6.620;2023-03-13T04:20:41;3.88;;;1.50;;
20170;SDS011;10245;51.344;6.620;2023-03-13T04:23:05;4.03;;;1.58;;
20170;SDS011;10245;51.344;6.620;2023-03-13T04:25:30;2.30;;;1.60;;
20170;SDS011;10245;51.344;6.620;2023-03-13T04:27:54;1.98;;;1.60;;
20170;SDS011;10245;51.344;6.620;2023-03-13T04:30:22;5.72;;;1.90;;
20170;SDS011;10245;51.344;6.620;2023-03-13T04:33:01;1.98;;;1.83;;
20170;SDS011;10245;51.344;6.620;2023-03-13T04:35:57;2.15;;;1.50;;
20170;SDS011;10245;51.344;6.620;2023-03-13T04:38:45;4.40;;;1.73;;
20170;SDS011;10245;51.344;6.620;2023-03-13T04:41:36;2.03;;;1.50;;
20170;SDS011;10245;51.344;6.620;2023-03-13T04:44:07;5.32;;;2.22;;
20170;SDS011;10245;51.344;6.620;2023-03-13T04:47:09;3.28;;;1.98;;
20170;SDS011;10245;51.344;6.620;2023-03-13T04:49:56;2.83;;;2.00;;
20170;SDS011;10245;51.344;6.620;2023-03-13T04:52:39;3.35;;;1.80;;
20170;SDS011;10245;51.344;6.620;2023-03-13T04:55:03;3.75;;;2.00;;
20170;SDS011;10245;51.344;6.620;2023-03-13T04:58:00;2.30;;;2.10;;
20170;SDS011;10245;51.344;6.620;2023-03-13T05:00:50;2.75;;;2.35;;
20170;SDS011;10245;51.344;6.620;2023-03-13T05:03:22;4.57;;;2.25;;
20170;SDS011;10245;51.344;6.620;2023-03-13T05:05:57;2.60;;;2.30;;
20170;SDS011;10245;51.344;6.620;2023-03-13T05:08:36;6.05;;;2.63;;
20170;SDS011;10245;51.344;6.620;2023-03-13T05:11:16;3.40;;;2.50;;
20170;SDS011;10245;51.344;6.620;2023-03-13T05:13:59;6.50;;;3.42;;
20170;SDS011;10245;51.344;6.620;2023-03-13T05:16:43;3.13;;;2.80;;
20170;SDS011;10245;51.344;6.620;2023-03-13T05:19:22;4.72;;;2.83;;
20170;SDS011;10245;51.344;6.620;2023-03-13T05:22:05;3.83;;;2.85;;
20170;SDS011;10245;51.344;6.620;2023-03-13T05:24:47;3.03;;;2.72;;
20170;SDS011;10245;51.344;6.620;2023-03-13T05:27:49;5.03;;;2.95;;
20170;SDS011;10245;51.344;6.620;2023-03-13T05:30:46;3.92;;;2.40;;
20170;SDS011;10245;51.344;6.620;2023-03-13T05:33:44;5.05;;;2.92;;
20170;SDS011;10245;51.344;6.620;2023-03-13T05:36:20;4.95;;;2.90;;
20170;SDS011;10245;51.344;6.620;2023-03-13T05:39:06;3.83;;;2.60;;
20170;SDS011;10245;51.344;6.620;2023-03-13T05:41:42;4.50;;;2.90;;
20170;SDS011;10245;51.344;6.620;2023-03-13T05:44:20;4.25;;;2.70;;
20170;SDS011;10245;51.344;6.620;2023-03-13T05:46:55;3.67;;;2.60;;
20170;SDS011;10245;51.344;6.620;2023-03-13T05:49:31;4.35;;;2.42;;
20170;SDS011;10245;51.344;6.620;2023-03-13T05:52:20;3.38;;;2.55;;
20170;SDS011;10245;51.344;6.620;2023-03-13T05:55:03;3.38;;;2.72;;
20170;SDS011;10245;51.344;6.620;2023-03-13T05:57:42;5.85;;;3.38;;
20170;SDS011;10245;51.344;6.620;2023-03-13T06:00:26;5.53;;;3.05;;
20170;SDS011;10245;51.344;6.620;2023-03-13T06:03:05;5.22;;;3.13;;
20170;SDS011;10245;51.344;6.620;2023-03-13T06:05:34;5.28;;;3.00;;
20170;SDS011;10245;51.344;6.620;2023-03-13T06:08:01;5.60;;;2.85;;
20170;SDS011;10245;51.344;6.620;2023-03-13T06:10:25;4.88;;;2.92;;
20170;SDS011;10245;51.344;6.620;2023-03-13T06:12:51;5.07;;;2.90;;
20170;SDS011;10245;51.344;6.620;2023-03-13T06:15:18;3.60;;;2.40;;
20170;SDS011;10245;51.344;6.620;2023-03-13T06:17:50;4.82;;;2.30;;
20170;SDS011;10245;51.344;6.620;2023-03-13T06:20:14;4.70;;;2.45;;
20170;SDS011;10245;51.344;6.620;2023-03-13T06:22:39;4.18;;;2.70;;
20170;SDS011;10245;51.344;6.620;2023-03-13T06:25:03;4.88;;;2.55;;
20170;SDS011;10245;51.344;6.620;2023-03-13T06:27:27;3.70;;;2.60;;
20170;SDS011;10245;51.344;6.620;2023-03-13T06:29:51;5.43;;;2.65;;
20170;SDS011;10245;51.344;6.620;2023-03-13T06:32:14;5.05;;;2.40;;
20170;SDS011;10245;51.344;6.620;2023-03-13T06:34:38;2.75;;;2.10;;
20170;SDS011;10245;51.344;6.620;2023-03-13T06:37:02;3.38;;;2.00;;
20170;SDS011;10245;51.344;6.620;2023-03-13T06:39:26;7.60;;;2.30;;
20170;SDS011;10245;51.344;6.620;2023-03-13T06:41:50;4.53;;;2.25;;
20170;SDS011;10245;51.344;6.620;2023-03-13T06:44:13;9.00;;;2.33;;
20170;SDS011;10245;51.344;6.620;2023-03-13T06:46:37;5.88;;;2.10;;
20170;SDS011;10245;51.344;6.620;2023-03-13T06:49:00;5.20;;;2.15;;
20170;SDS011;10245;51.344;6.620;2023-03-13T06:51:26;5.90;;;2.55;;
20170;SDS011;10245;51.344;6.620;2023-03-13T06:53:51;4.90;;;2.20;;
20170;SDS011;10245;51.344;6.620;2023-03-13T06:56:14;4.75;;;2.55;;
20170;SDS011;10245;51.344;6.620;2023-03-13T06:58:37;5.25;;;2.22;;
20170;SDS011;10245;51.344;6.620;2023-03-13T07:01:04;4.85;;;1.95;;
20170;SDS011;10245;51.344;6.620;2023-03-13T07:03:29;8.85;;;2.75;;
20170;SDS011;10245;51.344;6.620;2023-03-13T07:05:54;3.38;;;2.45;;
20170;SDS011;10245;51.344;6.620;2023-03-13T07:08:18;4.72;;;2.20;;
20170;SDS011;10245;51.344;6.620;2023-03-13T07:10:43;7.00;;;2.38;;
20170;SDS011;10245;51.344;6.620;2023-03-13T07:13:08;6.72;;;2.50;;
20170;SDS011;10245;51.344;6.620;2023-03-13T07:15:32;5.82;;;2.40;;
20170;SDS011;10245;51.344;6.620;2023-03-13T07:17:55;9.65;;;2.35;;
20170;SDS011;10245;51.344;6.620;2023-03-13T07:20:19;5.47;;;2.75;;
20170;SDS011;10245;51.344;6.620;2023-03-13T07:22:43;5.43;;;2.40;;
20170;SDS011;10245;51.344;6.620;2023-03-13T07:25:07;7.57;;;2.75;;
20170;SDS011;10245;51.344;6.620;2023-03-13T07:27:33;7.07;;;2.55;;
20170;SDS011;10245;51.344;6.620;2023-03-13T07:29:59;3.92;;;2.00;;
20170;SDS011;10245;51.344;6.620;2023-03-13T07:32:23;5.88;;;2.20;;
20170;SDS011;10245;51.344;6.620;2023-03-13T07:34:46;9.18;;;2.55;;
20170;SDS011;10245;51.344;6.620;2023-03-13T07:37:10;7.10;;;2.40;;
20170;SDS011;10245;51.344;6.620;2023-03-13T07:39:33;5.68;;;2.45;;
20170;SDS011;10245;51.344;6.620;2023-03-13T07:41:57;5.38;;;2.28;;
20170;SDS011;10245;51.344;6.620;2023-03-13T07:44:22;4.93;;;2.35;;
20170;SDS011;10245;51.344;6.620;2023-03-13T07:46:45;5.13;;;2.70;;
20170;SDS011;10245;51.344;6.620;2023-03-13T07:49:10;6.05;;;2.30;;
20170;SDS011;10245;51.344;6.620;2023-03-13T07:51:33;9.38;;;2.50;;
20170;SDS011;10245;51.344;6.620;2023-03-13T07:54:04;6.05;;;2.58;;
20170;SDS011;10245;51.344;6.620;2023-03-13T07:56:28;6.43;;;2.17;;
20170;SDS011;10245;51.344;6.620;2023-03-13T07:58:52;9.30;;;2.80;;
20170;SDS011;10245;51.344;6.620;2023-03-13T08:01:17;5.95;;;2.60;;
20170;SDS011;10245;51.344;6.620;2023-03-13T08:03:46;8.07;;;2.55;;
20170;SDS011;10245;51.344;6.620;2023-03-13T08:06:12;4.50;;;2.75;;
20170;SDS011;10245;51.344;6.620;2023-03-13T08:08:37;8.80;;;2.80;;
20170;SDS011;10245;51.344;6.620;2023-03-13T08:11:01;7.88;;;2.72;;
20170;SDS011;10245;51.344;6.620;2023-03-13T08:13:27;10.25;;;2.70;;
20170;SDS011;10245;51.344;6.620;2023-03-13T08:15:50;8.00;;;2.90;;
20170;SDS011;10245;51.344;6.620;2023-03-13T08:18:15;10.13;;;2.88;;
20170;SDS011;10245;51.344;6.620;2023-03-13T08:20:38;6.25;;;2.58;;
20170;SDS011;10245;51.344;6.620;2023-03-13T08:23:02;5.03;;;2.25;;
20170;SDS011;10245;51.344;6.620;2023-03-13T08:25:26;5.38;;;2.90;;
20170;SDS011;10245;51.344;6.620;2023-03-13T08:27:49;5.55;;;2.80;;
20170;SDS011;10245;51.344;6.620;2023-03-13T08:30:13;7.22;;;2.90;;
20170;SDS011;10245;51.344;6.620;2023-03-13T08:32:37;9.20;;;3.20;;
20170;SDS011;10245;51.344;6.620;2023-03-13T08:35:02;6.03;;;3.15;;
20170;SDS011;10245;51.344;6.620;2023-03-13T08:37:26;9.45;;;2.63;;
20170;SDS011;10245;51.344;6.620;2023-03-13T08:39:49;8.93;;;2.90;;
20170;SDS011;10245;51.344;6.620;2023-03-13T08:42:14;11.30;;;3.22;;
20170;SDS011;10245;51.344;6.620;2023-03-13T08:44:37;8.45;;;2.90;;
20170;SDS011;10245;51.344;6.620;2023-03-13T08:47:01;9.70;;;2.72;;
20170;SDS011;10245;51.344;6.620;2023-03-13T08:49:27;7.30;;;3.28;;
20170;SDS011;10245;51.344;6.620;2023-03-13T08:51:52;10.75;;;2.90;;
20170;SDS011;10245;51.344;6.620;2023-03-13T08:54:16;4.95;;;2.80;;
20170;SDS011;10245;51.344;6.620;2023-03-13T08:56:39;10.43;;;3.20;;
20170;SDS011;10245;51.344;6.620;2023-03-13T08:59:04;8.80;;;2.90;;
20170;SDS011;10245;51.344;6.620;2023-03-13T09:01:28;12.60;;;3.20;;
20170;SDS011;10245;51.344;6.620;2023-03-13T09:03:53;9.32;;;2.78;;
20170;SDS011;10245;51.344;6.620;2023-03-13T09:06:18;10.77;;;3.35;;
20170;SDS011;10245;51.344;6.620;2023-03-13T09:08:43;11.57;;;2.85;;
20170;SDS011;10245;51.344;6.620;2023-03-13T09:11:08;8.35;;;3.22;;
20170;SDS011;10245;51.344;6.620;2023-03-13T09:13:33;9.95;;;2.97;;
20170;SDS011;10245;51.344;6.620;2023-03-13T09:15:59;11.55;;;3.00;;
20170;SDS011;10245;51.344;6.620;2023-03-13T09:18:25;9.43;;;2.85;;
20170;SDS011;10245;51.344;6.620;2023-03-13T09:20:49;7.82;;;2.78;;
20170;SDS011;10245;51.344;6.620;2023-03-13T09:23:13;8.43;;;3.05;;
20170;SDS011;10245;51.344;6.620;2023-03-13T09:25:38;11.07;;;2.75;;
20170;SDS011;10245;51.344;6.620;2023-03-13T09:28:01;12.25;;;3.00;;
20170;SDS011;10245;51.344;6.620;2023-03-13T09:30:24;8.02;;;2.70;;
20170;SDS011;10245;51.344;6.620;2023-03-13T09:32:48;8.40;;;2.72;;
20170;SDS011;10245;51.344;6.620;2023-03-13T09:35:11;6.80;;;3.30;;
20170;SDS011;10245;51.344;6.620;2023-03-13T09:37:34;5.93;;;2.83;;
20170;SDS011;10245;51.344;6.620;2023-03-13T09:39:58;7.63;;;3.00;;
20170;SDS011;10245;51.344;6.620;2023-03-13T09:42:23;7.35;;;2.60;;
20170;SDS011;10245;51.344;6.620;2023-03-13T09:44:57;5.20;;;2.70;;
20170;SDS011;10245;51.344;6.620;2023-03-13T09:47:25;6.85;;;3.05;;
20170;SDS011;10245;51.344;6.620;2023-03-13T09:49:56;9.00;;;3.08;;
20170;SDS011;10245;51.344;6.620;2023-03-13T09:52:25;7.45;;;2.80;;
20170;SDS011;10245;51.344;6.620;2023-03-13T09:54:53;8.15;;;3.13;;
20170;SDS011;10245;51.344;6.620;2023-03-13T09:57:27;6.07;;;2.55;;
20170;SDS011;10245;51.344;6.620;2023-03-13T09:59:56;7.68;;;3.10;;
20170;SDS011;10245;51.344;6.620;2023-03-13T10:02:28;12.18;;;2.88;;
20170;SDS011;10245;51.344;6.620;2023-03-13T10:04:55;6.40;;;2.65;;
20170;SDS011;10245;51.344;6.620;2023-03-13T10:07:27;5.65;;;2.28;;
20170;SDS011;10245;51.344;6.620;2023-03-13T10:09:50;6.32;;;2.38;;
20170;SDS011;10245;51.344;6.620;2023-03-13T10:12:14;7.78;;;2.50;;
20170;SDS011;10245;51.344;6.620;2023-03-13T10:14:44;10.75;;;2.78;;
20170;SDS011;10245;51.344;6.620;2023-03-13T10:17:21;4.88;;;2.58;;
20170;SDS011;10245;51.344;6.620;2023-03-13T10:19:54;5.63;;;2.10;;
20170;SDS011;10245;51.344;6.620;2023-03-13T10:22:23;6.18;;;2.50;;
20170;SDS011;10245;51.344;6.620;2023-03-13T10:24:50;7.28;;;2.10;;
20170;SDS011;10245;51.344;6.620;2023-03-13T10:27:18;7.38;;;2.30;;
20170;SDS011;10245;51.344;6.620;2023-03-13T10:29:41;5.40;;;2.08;;
20170;SDS011;10245;51.344;6.620;2023-03-13T10:32:07;4.45;;;1.83;;
20170;SDS011;10245;51.344;6.620;2023-03-13T10:34:44;8.63;;;1.90;;
20170;SDS011;10245;51.344;6.620;2023-03-13T10:37:12;8.32;;;2.20;;
20170;SDS011;10245;51.344;6.620;2023-03-13T10:39:37;8.27;;;1.90;;
20170;SDS011;10245;51.344;6.620;2023-03-13T10:42:08;6.78;;;2.30;;
20170;SDS011;10245;51.344;6.620;2023-03-13T10:44:33;2.85;;;1.60;;
20170;SDS011;10245;51.344;6.620;2023-03-13T10:46:58;10.02;;;1.85;;
20170;SDS011;10245;51.344;6.620;2023-03-13T10:49:24;3.88;;;1.85;;
20170;SDS011;10245;51.344;6.620;2023-03-13T10:51:48;4.65;;;1.88;;
20170;SDS011;10245;51.344;6.620;2023-03-13T10:54:14;6.22;;;1.98;;
20170;SDS011;10245;51.344;6.620;2023-03-13T10:56:43;2.47;;;1.60;;
20170;SDS011;10245;51.344;6.620;2023-03-13T10:59:16;5.40;;;1.70;;
20170;SDS011;10245;51.344;6.620;2023-03-13T11:01:43;5.90;;;1.67;;
20170;SDS011;10245;51.344;6.620;2023-03-13T11:04:19;6.45;;;1.73;;
20170;SDS011;10245;51.344;6.620;2023-03-13T11:06:51;3.88;;;1.65;;
20170;SDS011;10245;51.344;6.620;2023-03-13T11:09:20;5.32;;;2.25;;
20170;SDS011;10245;51.344;6.620;2023-03-13T11:11:45;4.68;;;1.85;;
20170;SDS011;10245;51.344;6.620;2023-03-13T11:14:15;5.53;;;1.65;;
20170;SDS011;10245;51.344;6.620;2023-03-13T11:16:42;3.13;;;1.63;;
20170;SDS011;10245;51.344;6.620;2023-03-13T11:22:27;17.10;;;1.58;;
20170;SDS011;10245;51.344;6.620;2023-03-13T11:25:03;4.78;;;1.30;;
20170;SDS011;10245;51.344;6.620;2023-03-13T11:27:43;4.43;;;1.25;;
20170;SDS011;10245;51.344;6.620;2023-03-13T11:30:17;5.43;;;1.25;;
20170;SDS011;10245;51.344;6.620;2023-03-13T11:33:00;8.57;;;1.40;;
20170;SDS011;10245;51.344;6.620;2023-03-13T11:35:34;1.45;;;1.08;;
20170;SDS011;10245;51.344;6.620;2023-03-13T11:38:02;3.78;;;1.23;;
20170;SDS011;10245;51.344;6.620;2023-03-13T11:40:38;4.72;;;1.10;;
20170;SDS011;10245;51.344;6.620;2023-03-13T11:43:12;5.30;;;1.30;;
20170;SDS011;10245;51.344;6.620;2023-03-13T11:46:07;1.38;;;0.90;;
20170;SDS011;10245;51.344;6.620;2023-03-13T11:51:55;3.88;;;1.25;;
20170;SDS011;10245;51.344;6.620;2023-03-13T11:54:45;5.93;;;1.10;;
20170;SDS011;10245;51.344;6.620;2023-03-13T11:57:23;6.45;;;1.10;;
20170;SDS011;10245;51.344;6.620;2023-03-13T11:59:52;2.92;;;1.20;;
20170;SDS011;10245;51.344;6.620;2023-03-13T12:02:38;4.28;;;0.90;;
20170;SDS011;10245;51.344;6.620;2023-03-13T12:05:08;1.30;;;1.00;;
20170;SDS011;10245;51.344;6.620;2023-03-13T12:07:38;5.13;;;0.95;;
20170;SDS011;10245;51.344;6.620;2023-03-13T12:10:08;2.45;;;1.15;;
20170;SDS011;10245;51.344;6.620;2023-03-13T12:12:36;5.85;;;1.15;;
20170;SDS011;10245;51.344;6.620;2023-03-13T12:15:10;4.18;;;1.00;;
20170;SDS011;10245;51.344;6.620;2023-03-13T12:17:43;1.55;;;1.10;;
20170;SDS011;10245;51.344;6.620;2023-03-13T12:20:14;2.13;;;1.15;;
20170;SDS011;10245;51.344;6.620;2023-03-13T12:22:47;2.55;;;1.20;;
20170;SDS011;10245;51.344;6.620;2023-03-13T12:25:20;9.43;;;1.38;;
20170;SDS011;10245;51.344;6.620;2023-03-13T12:27:46;3.70;;;1.10;;
20170;SDS011;10245;51.344;6.620;2023-03-13T12:30:18;3.72;;;0.95;;
20170;SDS011;10245;51.344;6.620;2023-03-13T12:32:51;1.55;;;1.10;;
20170;SDS011;10245;51.344;6.620;2023-03-13T12:35:23;4.03;;;1.20;;
20170;SDS011;10245;51.344;6.620;2023-03-13T12:37:53;2.35;;;0.90;;
20170;SDS011;10245;51.344;6.620;2023-03-13T12:40:25;2.40;;;0.80;;
20170;SDS011;10245;51.344;6.620;2023-03-13T12:42:54;2.40;;;0.88;;
20170;SDS011;10245;51.344;6.620;2023-03-13T12:45:23;3.67;;;1.05;;
20170;SDS011;10245;51.344;6.620;2023-03-13T12:50:48;5.32;;;1.00;;
20170;SDS011;10245;51.344;6.620;2023-03-13T12:53:43;1.67;;;0.93;;
20170;SDS011;10245;51.344;6.620;2023-03-13T12:56:40;3.65;;;1.10;;
20170;SDS011;10245;51.344;6.620;2023-03-13T12:59:16;1.50;;;0.82;;
20170;SDS011;10245;51.344;6.620;2023-03-13T13:01:44;1.42;;;0.90;;
20170;SDS011;10245;51.344;6.620;2023-03-13T13:04:12;4.10;;;0.80;;
20170;SDS011;10245;51.344;6.620;2023-03-13T13:06:52;2.45;;;0.70;;
20170;SDS011;10245;51.344;6.620;2023-03-13T13:09:21;3.00;;;0.90;;
20170;SDS011;10245;51.344;6.620;2023-03-13T13:11:47;2.15;;;1.27;;
20170;SDS011;10245;51.344;6.620;2023-03-13T13:23:20;3.38;;;0.70;;
20170;SDS011;10245;51.344;6.620;2023-03-13T13:25:56;5.55;;;0.90;;
20170;SDS011;10245;51.344;6.620;2023-03-13T13:32:41;8.15;;;1.15;;
20170;SDS011;10245;51.344;6.620;2023-03-13T13:35:20;3.45;;;1.10;;
20170;SDS011;10245;51.344;6.620;2023-03-13T13:37:57;2.17;;;0.95;;
20170;SDS011;10245;51.344;6.620;2023-03-13T13:40:58;2.75;;;0.90;;
20170;SDS011;10245;51.344;6.620;2023-03-13T13:43:27;1.83;;;0.93;;
20170;SDS011;10245;51.344;6.620;2023-03-13T13:45:56;3.28;;;0.85;;
20170;SDS011;10245;51.344;6.620;2023-03-13T13:48:27;2.13;;;1.08;;
20170;SDS011;10245;51.344;6.620;2023-03-13T13:53:46;8.68;;;0.98;;
20170;SDS011;10245;51.344;6.620;2023-03-13T13:56:33;2.85;;;0.90;;
20170;SDS011;10245;51.344;6.620;2023-03-13T13:59:05;2.92;;;1.20;;
20170;SDS011;10245;51.344;6.620;2023-03-13T14:02:17;3.88;;;1.00;;
20170;SDS011;10245;51.344;6.620;2023-03-13T14:04:47;2.47;;;1.02;;
20170;SDS011;10245;51.344;6.620;2023-03-13T14:07:20;2.20;;;0.98;;
20170;SDS011;10245;51.344;6.620;2023-03-13T14:09:53;2.65;;;1.20;;
20170;SDS011;10245;51.344;6.620;2023-03-13T14:12:26;2.10;;;1.00;;
20170;SDS011;10245;51.344;6.620;2023-03-13T14:15:06;1.80;;;1.10;;
20170;SDS011;10245;51.344;6.620;2023-03-13T14:17:38;4.00;;;1.55;;
20170;SDS011;10245;51.344;6.620;2023-03-13T14:20:04;3.33;;;1.23;;
20170;SDS011;10245;51.344;6.620;2023-03-13T14:22:44;2.88;;;1.02;;
20170;SDS011;10245;51.344;6.620;2023-03-13T14:25:08;6.60;;;1.40;;
20170;SDS011;10245;51.344;6.620;2023-03-13T14:27:32;2.35;;;1.20;;
20170;SDS011;10245;51.344;6.620;2023-03-13T14:29:59;1.95;;;1.13;;
20170;SDS011;10245;51.344;6.620;2023-03-13T14:32:25;3.38;;;1.10;;
20170;SDS011;10245;51.344;6.620;2023-03-13T14:34:49;4.63;;;1.08;;
20170;SDS011;10245;51.344;6.620;2023-03-13T14:39:57;4.30;;;1.15;;
20170;SDS011;10245;51.344;6.620;2023-03-13T14:42:30;1.92;;;1.40;;
20170;SDS011;10245;51.344;6.620;2023-03-13T14:45:00;2.10;;;1.10;;
20170;SDS011;10245;51.344;6.620;2023-03-13T14:47:36;5.78;;;1.17;;
20170;SDS011;10245;51.344;6.620;2023-03-13T14:50:00;2.20;;;1.10;;
20170;SDS011;10245;51.344;6.620;2023-03-13T14:52:27;5.53;;;1.40;;
20170;SDS011;10245;51.344;6.620;2023-03-13T14:54:53;3.00;;;1.40;;
20170;SDS011;10245;51.344;6.620;2023-03-13T14:57:19;3.00;;;1.00;;
20170;SDS011;10245;51.344;6.620;2023-03-13T14:59:47;2.33;;;1.20;;
20170;SDS011;10245;51.344;6.620;2023-03-13T15:02:13;2.97;;;1.00;;
20170;SDS011;10245;51.344;6.620;2023-03-13T15:04:53;3.53;;;0.93;;
20170;SDS011;10245;51.344;6.620;2023-03-13T15:07:20;1.30;;;1.10;;
20170;SDS011;10245;51.344;6.620;2023-03-13T15:09:45;1.20;;;1.00;;
20170;SDS011;10245;51.344;6.620;2023-03-13T15:12:12;2.75;;;1.10;;
20170;SDS011;10245;51.344;6.620;2023-03-13T15:14:38;2.10;;;1.15;;
20170;SDS011;10245;51.344;6.620;2023-03-13T15:17:03;2.65;;;1.33;;
20170;SDS011;10245;51.344;6.620;2023-03-13T15:19:37;3.67;;;1.30;;
20170;SDS011;10245;51.344;6.620;2023-03-13T15:22:01;2.42;;;1.25;;
20170;SDS011;10245;51.344;6.620;2023-03-13T15:24:25;1.65;;;0.93;;